📊 Raw Sensor Data
Showing records 47076 to 47100 of 85,080 total
| ID | Distance (ft) | Battery V | Battery A | Int Temp (°F) | Int Humid (%) | Ext Temp (°F) | Solar V | RSSI | SNR | Time Stamp |
|---|---|---|---|---|---|---|---|---|---|---|
| 38017 | 15.3 | 3.80 | -5 | 52 | 43 | 53 | 0.10 | -83 | 9 | 04/16/2025 09:15 PM |
| 38016 | 15.3 | 3.80 | -5 | 52 | 44 | 53 | 0.00 | -84 | 8 | 04/16/2025 09:01 PM |
| 38015 | -- | 3.86 | -5 | 52 | 44 | 53 | 0.00 | -87 | 7 | 04/16/2025 08:46 PM |
| 38014 | -- | 3.86 | -5 | 53 | 45 | 53 | 0.00 | -84 | 8 | 04/16/2025 08:30 PM |
| 38013 | -- | 3.80 | -5 | 53 | 46 | 54 | 0.00 | -85 | 7 | 04/16/2025 08:15 PM |
| 38012 | -- | 3.80 | -5 | 54 | 47 | 54 | 0.40 | -84 | 8 | 04/16/2025 08:00 PM |
| 38011 | -- | 3.80 | -10 | 56 | 47 | 55 | 2.60 | -86 | 7 | 04/16/2025 07:45 PM |
| 38010 | 15.2 | 3.81 | 0 | 59 | 47 | 56 | 4.50 | -87 | 7 | 04/16/2025 07:30 PM |
| 38009 | 15.3 | 3.89 | 8 | 62 | 46 | 58 | 4.50 | -87 | 7 | 04/16/2025 07:15 PM |
| 38008 | 15.3 | 3.84 | 15 | 63 | 46 | 60 | 4.50 | -85 | 7 | 04/16/2025 07:00 PM |
| 38007 | 15.3 | 3.85 | 0 | 63 | 48 | 59 | 4.50 | -81 | 7 | 04/16/2025 06:45 PM |
| 38006 | 15.4 | 3.83 | 0 | 70 | 45 | 63 | 5.10 | -84 | 8 | 04/16/2025 06:15 PM |
| 38005 | 15.4 | 3.83 | 0 | 71 | 45 | 64 | 5.10 | -80 | 7 | 04/16/2025 06:00 PM |
| 38004 | 15.4 | 3.84 | 0 | 71 | 44 | 65 | 5.10 | -89 | 6 | 04/16/2025 05:45 PM |
| 38003 | 15.4 | 3.83 | 0 | 72 | 45 | 66 | 5.10 | -86 | 7 | 04/16/2025 05:30 PM |
| 38002 | 15.4 | 3.83 | 0 | 71 | 46 | 66 | 5.10 | -91 | 4 | 04/16/2025 05:15 PM |
| 38001 | 15.4 | 3.83 | 0 | 72 | 46 | 66 | 5.10 | -84 | 8 | 04/16/2025 05:00 PM |
| 38000 | 15.4 | 3.83 | 0 | 77 | 44 | 68 | 5.10 | -86 | 7 | 04/16/2025 04:45 PM |
| 37999 | 15.4 | 3.83 | 0 | 78 | 43 | 70 | 5.10 | -87 | 7 | 04/16/2025 04:30 PM |
| 37998 | 15.4 | 3.83 | 0 | 79 | 41 | 71 | 5.10 | -83 | 8 | 04/16/2025 04:15 PM |
| 37997 | 15.4 | 4.09 | 0 | 78 | 41 | 72 | 5.10 | -85 | 7 | 04/16/2025 04:00 PM |
| 37996 | 15.5 | 3.83 | 0 | 78 | 41 | 68 | 5.10 | -85 | 7 | 04/16/2025 03:45 PM |
| 37995 | 15.5 | 3.83 | 0 | 78 | 40 | 70 | 5.10 | -83 | 7 | 04/16/2025 03:30 PM |
| 37994 | -- | 3.83 | 0 | 78 | 39 | 71 | 5.10 | -78 | 7 | 04/16/2025 03:15 PM |
| 37993 | -- | 3.85 | 0 | 78 | 39 | 71 | 5.10 | -84 | 8 | 04/16/2025 03:00 PM |